sensor_id;sensor_type;location;lat;lon;timestamp;pressure;altitude;pressure_sealevel;temperature;humidity
63204;BME280;49297;43.210;27.914;2023-02-12T00:01:50;102223.59;;;-0.03;52.77
63204;BME280;49297;43.210;27.914;2023-02-12T00:04:16;102219.25;;;-0.04;52.86
63204;BME280;49297;43.210;27.914;2023-02-12T00:06:42;102216.75;;;-0.07;53.28
63204;BME280;49297;43.210;27.914;2023-02-12T00:09:07;102210.66;;;-0.07;53.23
63204;BME280;49297;43.210;27.914;2023-02-12T00:11:33;102212.47;;;-0.11;53.87
63204;BME280;49297;43.210;27.914;2023-02-12T00:14:01;102213.47;;;-0.16;54.23
63204;BME280;49297;43.210;27.914;2023-02-12T00:16:27;102206.63;;;-0.21;54.34
63204;BME280;49297;43.210;27.914;2023-02-12T00:18:55;102211.91;;;-0.25;54.72
63204;BME280;49297;43.210;27.914;2023-02-12T00:21:22;102210.22;;;-0.26;54.73
63204;BME280;49297;43.210;27.914;2023-02-12T00:23:48;102204.25;;;-0.31;55.02
63204;BME280;49297;43.210;27.914;2023-02-12T00:26:19;102207.81;;;-0.35;55.17
63204;BME280;49297;43.210;27.914;2023-02-12T00:28:45;102206.91;;;-0.36;55.03
63204;BME280;49297;43.210;27.914;2023-02-12T00:31:13;102214.88;;;-0.42;55.57
63204;BME280;49297;43.210;27.914;2023-02-12T00:33:39;102202.69;;;-0.42;55.32
63204;BME280;49297;43.210;27.914;2023-02-12T00:36:06;102206.94;;;-0.38;54.95
63204;BME280;49297;43.210;27.914;2023-02-12T00:38:33;102210.44;;;-0.37;54.93
63204;BME280;49297;43.210;27.914;2023-02-12T00:40:59;102207.81;;;-0.35;55.41
63204;BME280;49297;43.210;27.914;2023-02-12T00:43:25;102205.19;;;-0.35;55.15
63204;BME280;49297;43.210;27.914;2023-02-12T00:45:51;102197.31;;;-0.32;54.42
63204;BME280;49297;43.210;27.914;2023-02-12T00:48:17;102192.88;;;-0.29;54.64
63204;BME280;49297;43.210;27.914;2023-02-12T00:50:47;102196.28;;;-0.25;54.42
63204;BME280;49297;43.210;27.914;2023-02-12T00:53:14;102191.00;;;-0.21;54.51
63204;BME280;49297;43.210;27.914;2023-02-12T00:55:40;102190.94;;;-0.17;54.12
63204;BME280;49297;43.210;27.914;2023-02-12T00:58:08;102190.84;;;-0.14;54.39
63204;BME280;49297;43.210;27.914;2023-02-12T01:00:34;102181.22;;;-0.11;54.14
63204;BME280;49297;43.210;27.914;2023-02-12T01:02:59;102175.91;;;-0.05;53.78
63204;BME280;49297;43.210;27.914;2023-02-12T01:05:25;102179.25;;;0.02;53.62
63204;BME280;49297;43.210;27.914;2023-02-12T01:07:52;102173.91;;;0.07;53.60
63204;BME280;49297;43.210;27.914;2023-02-12T01:10:19;102169.56;;;0.07;53.14
63204;BME280;49297;43.210;27.914;2023-02-12T01:12:46;102176.44;;;0.10;53.48
63204;BME280;49297;43.210;27.914;2023-02-12T01:15:12;102173.00;;;0.09;53.64
63204;BME280;49297;43.210;27.914;2023-02-12T01:17:38;102177.28;;;0.12;53.31
63204;BME280;49297;43.210;27.914;2023-02-12T01:20:06;102175.50;;;0.12;53.17
63204;BME280;49297;43.210;27.914;2023-02-12T01:22:33;102173.75;;;0.14;53.39
63204;BME280;49297;43.210;27.914;2023-02-12T01:24:59;102174.56;;;0.16;53.13
63204;BME280;49297;43.210;27.914;2023-02-12T01:27:25;102173.63;;;0.19;53.16
63204;BME280;49297;43.210;27.914;2023-02-12T01:29:51;102170.25;;;0.15;53.17
63204;BME280;49297;43.210;27.914;2023-02-12T01:32:17;102169.44;;;0.13;53.12
63204;BME280;49297;43.210;27.914;2023-02-12T01:34:43;102168.53;;;0.14;53.48
63204;BME280;49297;43.210;27.914;2023-02-12T01:37:08;102158.13;;;0.14;53.81
63204;BME280;49297;43.210;27.914;2023-02-12T01:39:35;102160.72;;;0.14;54.28
63204;BME280;49297;43.210;27.914;2023-02-12T01:42:01;102158.19;;;0.11;54.50
63204;BME280;49297;43.210;27.914;2023-02-12T01:44:31;102153.03;;;0.08;54.86
63204;BME280;49297;43.210;27.914;2023-02-12T01:47:03;102155.72;;;0.05;54.96
63204;BME280;49297;43.210;27.914;2023-02-12T01:54:30;102162.91;;;-0.06;54.34
63204;BME280;49297;43.210;27.914;2023-02-12T01:56:59;102155.84;;;-0.01;54.62
63204;BME280;49297;43.210;27.914;2023-02-12T01:59:26;102144.66;;;-0.05;54.32
63204;BME280;49297;43.210;27.914;2023-02-12T02:01:53;102162.13;;;-0.10;54.16
63204;BME280;49297;43.210;27.914;2023-02-12T02:04:24;102160.41;;;-0.11;54.13
63204;BME280;49297;43.210;27.914;2023-02-12T02:06:56;102163.94;;;-0.13;54.00
63204;BME280;49297;43.210;27.914;2023-02-12T02:09:23;102162.28;;;-0.16;54.06
63204;BME280;49297;43.210;27.914;2023-02-12T02:11:49;102157.91;;;-0.15;53.96
63204;BME280;49297;43.210;27.914;2023-02-12T02:14:34;102161.31;;;-0.12;53.83
63204;BME280;49297;43.210;27.914;2023-02-12T02:17:26;102155.97;;;-0.07;53.69
63204;BME280;49297;43.210;27.914;2023-02-12T02:23:19;102155.09;;;-0.06;53.27
63204;BME280;49297;43.210;27.914;2023-02-12T02:26:04;102153.44;;;-0.09;53.12
63204;BME280;49297;43.210;27.914;2023-02-12T02:31:45;102145.63;;;-0.09;53.04
63204;BME280;49297;43.210;27.914;2023-02-12T02:34:37;102157.78;;;-0.11;53.33
63204;BME280;49297;43.210;27.914;2023-02-12T02:40:23;102163.00;;;-0.11;53.23
63204;BME280;49297;43.210;27.914;2023-02-12T02:42:59;102164.72;;;-0.10;53.42
63204;BME280;49297;43.210;27.914;2023-02-12T02:45:36;102167.25;;;-0.05;53.24
63204;BME280;49297;43.210;27.914;2023-02-12T02:48:55;102169.84;;;-0.05;53.13
63204;BME280;49297;43.210;27.914;2023-02-12T02:51:07;102163.66;;;-0.01;53.09
63204;BME280;49297;43.210;27.914;2023-02-12T02:53:42;102157.53;;;0.02;53.00
63204;BME280;49297;43.210;27.914;2023-02-12T02:56:15;102156.56;;;0.07;52.84
63204;BME280;49297;43.210;27.914;2023-02-12T02:58:58;102163.44;;;0.10;52.85
63204;BME280;49297;43.210;27.914;2023-02-12T03:01:30;102155.47;;;0.16;52.82
63204;BME280;49297;43.210;27.914;2023-02-12T03:04:34;102166.66;;;0.19;52.86
63204;BME280;49297;43.210;27.914;2023-02-12T03:07:07;102155.38;;;0.21;52.92
63204;BME280;49297;43.210;27.914;2023-02-12T03:09:44;102150.97;;;0.23;52.74
63204;BME280;49297;43.210;27.914;2023-02-12T03:12:16;102151.81;;;0.23;52.88
63204;BME280;49297;43.210;27.914;2023-02-12T03:14:52;102159.63;;;0.23;52.71
63204;BME280;49297;43.210;27.914;2023-02-12T03:17:25;102164.91;;;0.22;52.49
63204;BME280;49297;43.210;27.914;2023-02-12T03:20:19;102156.22;;;0.21;52.46
63204;BME280;49297;43.210;27.914;2023-02-12T03:23:09;102167.44;;;0.23;52.60
63204;BME280;49297;43.210;27.914;2023-02-12T03:25:58;102167.44;;;0.23;52.49
63204;BME280;49297;43.210;27.914;2023-02-12T03:28:28;102166.56;;;0.24;52.38
63204;BME280;49297;43.210;27.914;2023-02-12T03:37:04;102164.84;;;0.23;53.30
63204;BME280;49297;43.210;27.914;2023-02-12T03:39:44;102167.50;;;0.22;53.26
63204;BME280;49297;43.210;27.914;2023-02-12T03:45:13;102164.97;;;0.18;53.21
63204;BME280;49297;43.210;27.914;2023-02-12T03:47:50;102169.34;;;0.18;53.55
63204;BME280;49297;43.210;27.914;2023-02-12T03:50:25;102166.75;;;0.16;53.43
63204;BME280;49297;43.210;27.914;2023-02-12T03:52:54;102168.44;;;0.17;53.50
63204;BME280;49297;43.210;27.914;2023-02-12T03:55:20;102161.44;;;0.19;53.97
63204;BME280;49297;43.210;27.914;2023-02-12T03:57:50;102159.63;;;0.23;53.63
63204;BME280;49297;43.210;27.914;2023-02-12T04:00:21;102166.53;;;0.26;53.71
63204;BME280;49297;43.210;27.914;2023-02-12T04:02:49;102159.56;;;0.26;53.83
63204;BME280;49297;43.210;27.914;2023-02-12T04:05:21;102162.19;;;0.26;54.22
63204;BME280;49297;43.210;27.914;2023-02-12T04:07:49;102163.13;;;0.24;54.42
63204;BME280;49297;43.210;27.914;2023-02-12T04:10:16;102162.38;;;0.18;54.77
63204;BME280;49297;43.210;27.914;2023-02-12T04:12:51;102153.72;;;0.16;55.18
63204;BME280;49297;43.210;27.914;2023-02-12T04:29:00;102160.34;;;-0.08;56.47
63204;BME280;49297;43.210;27.914;2023-02-12T04:35:25;102174.31;;;-0.12;55.57
63204;BME280;49297;43.210;27.914;2023-02-12T04:37:23;102180.34;;;-0.10;54.92
63204;BME280;49297;43.210;27.914;2023-02-12T04:39:50;102184.78;;;-0.13;54.75
63204;BME280;49297;43.210;27.914;2023-02-12T04:42:18;102180.50;;;-0.16;54.84
63204;BME280;49297;43.210;27.914;2023-02-12T04:44:43;102187.38;;;-0.13;54.39
63204;BME280;49297;43.210;27.914;2023-02-12T04:47:14;102189.91;;;-0.10;54.64
63204;BME280;49297;43.210;27.914;2023-02-12T04:49:41;102187.31;;;-0.10;54.51
63204;BME280;49297;43.210;27.914;2023-02-12T04:52:07;102186.38;;;-0.08;54.45
63204;BME280;49297;43.210;27.914;2023-02-12T04:54:33;102188.94;;;-0.06;54.28
63204;BME280;49297;43.210;27.914;2023-02-12T04:56:59;102178.50;;;-0.05;54.29
63204;BME280;49297;43.210;27.914;2023-02-12T04:59:25;102194.16;;;-0.06;54.04
63204;BME280;49297;43.210;27.914;2023-02-12T05:01:51;102188.97;;;-0.08;54.48
63204;BME280;49297;43.210;27.914;2023-02-12T05:04:17;102200.31;;;-0.09;54.08
63204;BME280;49297;43.210;27.914;2023-02-12T05:06:44;102207.22;;;-0.08;54.13
63204;BME280;49297;43.210;27.914;2023-02-12T05:09:18;102206.38;;;-0.08;54.08
63204;BME280;49297;43.210;27.914;2023-02-12T05:11:44;102213.31;;;-0.09;54.36
63204;BME280;49297;43.210;27.914;2023-02-12T05:14:11;102218.53;;;-0.09;54.39
63204;BME280;49297;43.210;27.914;2023-02-12T05:16:37;102218.47;;;-0.07;54.28
63204;BME280;49297;43.210;27.914;2023-02-12T05:19:02;102218.41;;;-0.04;54.13
63204;BME280;49297;43.210;27.914;2023-02-12T05:21:28;102219.31;;;-0.05;54.18
63204;BME280;49297;43.210;27.914;2023-02-12T05:23:54;102217.53;;;-0.03;54.42
63204;BME280;49297;43.210;27.914;2023-02-12T05:26:21;102221.03;;;-0.04;54.48
63204;BME280;49297;43.210;27.914;2023-02-12T05:28:46;102228.78;;;-0.01;54.54
63204;BME280;49297;43.210;27.914;2023-02-12T05:31:15;102233.94;;;0.02;54.54
63204;BME280;49297;43.210;27.914;2023-02-12T05:33:43;102233.03;;;0.03;54.59
63204;BME280;49297;43.210;27.914;2023-02-12T05:36:14;102234.75;;;0.04;54.81
63204;BME280;49297;43.210;27.914;2023-02-12T05:38:40;102235.50;;;0.09;54.55
63204;BME280;49297;43.210;27.914;2023-02-12T05:41:11;102242.41;;;0.10;54.95
63204;BME280;49297;43.210;27.914;2023-02-12T05:43:37;102241.56;;;0.10;54.83
63204;BME280;49297;43.210;27.914;2023-02-12T05:46:05;102241.41;;;0.16;54.71
63204;BME280;49297;43.210;27.914;2023-02-12T05:48:32;102248.34;;;0.17;55.16
63204;BME280;49297;43.210;27.914;2023-02-12T05:51:19;102244.03;;;0.16;55.54
63204;BME280;49297;43.210;27.914;2023-02-12T05:53:46;102250.97;;;0.17;55.62
63204;BME280;49297;43.210;27.914;2023-02-12T05:56:16;102255.19;;;0.23;55.97
63204;BME280;49297;43.210;27.914;2023-02-12T05:58:45;102263.00;;;0.23;56.93
63204;BME280;49297;43.210;27.914;2023-02-12T06:01:15;102262.91;;;0.27;56.74
63204;BME280;49297;43.210;27.914;2023-02-12T06:03:42;102274.91;;;0.34;57.07
63204;BME280;49297;43.210;27.914;2023-02-12T06:06:09;102279.97;;;0.41;57.19
63204;BME280;49297;43.210;27.914;2023-02-12T06:08:35;102287.56;;;0.50;57.29
63204;BME280;49297;43.210;27.914;2023-02-12T06:11:03;102281.34;;;0.57;57.31
63204;BME280;49297;43.210;27.914;2023-02-12T06:13:30;102281.22;;;0.63;56.80
63204;BME280;49297;43.210;27.914;2023-02-12T06:15:57;102291.44;;;0.71;56.77
63204;BME280;49297;43.210;27.914;2023-02-12T06:18:23;102282.88;;;0.66;56.89
63204;BME280;49297;43.210;27.914;2023-02-12T06:20:48;102289.03;;;0.63;56.99
63204;BME280;49297;43.210;27.914;2023-02-12T06:23:14;102284.72;;;0.61;56.95
63204;BME280;49297;43.210;27.914;2023-02-12T06:25:40;102281.31;;;0.59;56.89
63204;BME280;49297;43.210;27.914;2023-02-12T06:28:06;102283.81;;;0.63;56.89
63204;BME280;49297;43.210;27.914;2023-02-12T06:30:35;102274.22;;;0.65;57.01
63204;BME280;49297;43.210;27.914;2023-02-12T06:33:01;102281.31;;;0.59;57.25
63204;BME280;49297;43.210;27.914;2023-02-12T06:35:27;102282.09;;;0.62;57.54
63204;BME280;49297;43.210;27.914;2023-02-12T06:37:53;102284.78;;;0.59;58.10
63204;BME280;49297;43.210;27.914;2023-02-12T06:40:18;102300.25;;;0.67;58.12
63204;BME280;49297;43.210;27.914;2023-02-12T06:42:44;102304.41;;;0.75;58.10
63204;BME280;49297;43.210;27.914;2023-02-12T06:45:10;102294.88;;;0.73;58.67
63204;BME280;49297;43.210;27.914;2023-02-12T06:47:36;102301.81;;;0.74;59.12
63204;BME280;49297;43.210;27.914;2023-02-12T06:50:02;102308.59;;;0.81;59.17
63204;BME280;49297;43.210;27.914;2023-02-12T06:52:28;102302.41;;;0.85;58.54
63204;BME280;49297;43.210;27.914;2023-02-12T06:54:54;102295.38;;;0.89;59.03
63204;BME280;49297;43.210;27.914;2023-02-12T06:57:20;102293.41;;;0.99;58.30
63204;BME280;49297;43.210;27.914;2023-02-12T06:59:46;102295.81;;;1.06;58.05
63204;BME280;49297;43.210;27.914;2023-02-12T07:02:12;102299.78;;;1.21;58.18
63204;BME280;49297;43.210;27.914;2023-02-12T07:04:38;102295.38;;;1.25;57.92
63204;BME280;49297;43.210;27.914;2023-02-12T07:07:04;102287.47;;;1.28;57.76
63204;BME280;49297;43.210;27.914;2023-02-12T07:09:30;102293.38;;;1.35;57.82
63204;BME280;49297;43.210;27.914;2023-02-12T07:11:59;102302.78;;;1.42;57.63
63204;BME280;49297;43.210;27.914;2023-02-12T07:14:25;102304.34;;;1.47;57.89
63204;BME280;49297;43.210;27.914;2023-02-12T07:16:53;102312.78;;;1.59;58.04
63204;BME280;49297;43.210;27.914;2023-02-12T07:19:22;102309.78;;;1.73;57.10
63204;BME280;49297;43.210;27.914;2023-02-12T07:21:48;102306.09;;;1.80;57.76
63204;BME280;49297;43.210;27.914;2023-02-12T07:24:15;102297.13;;;1.90;57.58
63204;BME280;49297;43.210;27.914;2023-02-12T07:26:42;102308.09;;;2.01;56.51
63204;BME280;49297;43.210;27.914;2023-02-12T07:29:08;102307.75;;;2.14;56.81
63204;BME280;49297;43.210;27.914;2023-02-12T07:31:34;102309.97;;;2.27;56.46
63204;BME280;49297;43.210;27.914;2023-02-12T07:34:03;102314.00;;;2.39;55.90
63204;BME280;49297;43.210;27.914;2023-02-12T07:36:30;102318.09;;;2.48;55.77
63204;BME280;49297;43.210;27.914;2023-02-12T07:38:57;102320.47;;;2.56;55.27
63204;BME280;49297;43.210;27.914;2023-02-12T07:41:29;102326.47;;;2.59;55.38
63204;BME280;49297;43.210;27.914;2023-02-12T07:44:06;102315.97;;;2.61;55.12
63204;BME280;49297;43.210;27.914;2023-02-12T07:49:09;102330.13;;;2.82;54.33
63204;BME280;49297;43.210;27.914;2023-02-12T07:51:36;102336.94;;;2.88;54.68
63204;BME280;49297;43.210;27.914;2023-02-12T07:54:03;102334.16;;;2.92;53.96
63204;BME280;49297;43.210;27.914;2023-02-12T07:56:32;102339.22;;;2.98;53.94
63204;BME280;49297;43.210;27.914;2023-02-12T07:59:02;102325.81;;;3.08;53.92
63204;BME280;49297;43.210;27.914;2023-02-12T08:01:31;102334.28;;;3.16;53.44
63204;BME280;49297;43.210;27.914;2023-02-12T08:04:06;102333.22;;;3.21;53.27
63204;BME280;49297;43.210;27.914;2023-02-12T08:06:35;102331.19;;;3.30;53.54
63204;BME280;49297;43.210;27.914;2023-02-12T08:09:06;102336.25;;;3.36;52.69
63204;BME280;49297;43.210;27.914;2023-02-12T08:11:33;102345.59;;;3.43;52.69
63204;BME280;49297;43.210;27.914;2023-02-12T08:14:00;102345.34;;;3.51;52.69
63204;BME280;49297;43.210;27.914;2023-02-12T08:16:28;102347.81;;;3.55;52.21
63204;BME280;49297;43.210;27.914;2023-02-12T08:18:54;102345.94;;;3.59;51.85
63204;BME280;49297;43.210;27.914;2023-02-12T08:21:23;102354.59;;;3.61;51.80
63204;BME280;49297;43.210;27.914;2023-02-12T08:23:49;102357.16;;;3.62;51.89
63204;BME280;49297;43.210;27.914;2023-02-12T08:26:21;102357.00;;;3.67;51.71
63204;BME280;49297;43.210;27.914;2023-02-12T08:28:53;102352.44;;;3.72;52.03
63204;BME280;49297;43.210;27.914;2023-02-12T08:31:27;102359.19;;;3.79;51.56
63204;BME280;49297;43.210;27.914;2023-02-12T08:33:54;102365.13;;;3.85;51.76
63204;BME280;49297;43.210;27.914;2023-02-12T08:36:24;102363.31;;;3.87;51.21
63204;BME280;49297;43.210;27.914;2023-02-12T08:38:51;102368.44;;;3.90;51.24
63204;BME280;49297;43.210;27.914;2023-02-12T08:41:23;102358.66;;;3.95;51.75
63204;BME280;49297;43.210;27.914;2023-02-12T08:43:51;102361.31;;;3.93;51.66
63204;BME280;49297;43.210;27.914;2023-02-12T08:46:20;102348.66;;;3.81;51.87
63204;BME280;49297;43.210;27.914;2023-02-12T08:48:46;102362.47;;;3.86;51.93
63204;BME280;49297;43.210;27.914;2023-02-12T08:51:18;102350.28;;;3.85;52.13
63204;BME280;49297;43.210;27.914;2023-02-12T08:53:46;102354.44;;;3.91;51.78
63204;BME280;49297;43.210;27.914;2023-02-12T08:56:14;102364.78;;;3.94;51.64
63204;BME280;49297;43.210;27.914;2023-02-12T08:58:41;102355.81;;;4.01;51.83
63204;BME280;49297;43.210;27.914;2023-02-12T09:01:16;102367.13;;;4.03;52.40
63204;BME280;49297;43.210;27.914;2023-02-12T09:03:43;102366.97;;;4.06;52.79
63204;BME280;49297;43.210;27.914;2023-02-12T09:06:09;102370.13;;;4.16;52.67
63204;BME280;49297;43.210;27.914;2023-02-12T09:08:36;102370.78;;;4.23;52.47
63204;BME280;49297;43.210;27.914;2023-02-12T09:11:08;102375.56;;;4.35;51.86
63204;BME280;49297;43.210;27.914;2023-02-12T09:13:35;102377.97;;;4.41;51.85
63204;BME280;49297;43.210;27.914;2023-02-12T09:16:02;102378.53;;;4.49;50.98
63204;BME280;49297;43.210;27.914;2023-02-12T09:18:29;102381.72;;;4.57;50.95
63204;BME280;49297;43.210;27.914;2023-02-12T09:21:00;102381.34;;;4.67;50.74
63204;BME280;49297;43.210;27.914;2023-02-12T09:23:27;102382.03;;;4.72;50.31
63204;BME280;49297;43.210;27.914;2023-02-12T09:25:53;102385.41;;;4.75;50.70
63204;BME280;49297;43.210;27.914;2023-02-12T09:28:18;102387.06;;;4.78;50.15
63204;BME280;49297;43.210;27.914;2023-02-12T09:30:44;102395.63;;;4.83;49.73
63204;BME280;49297;43.210;27.914;2023-02-12T09:33:11;102380.47;;;4.90;50.19
63204;BME280;49297;43.210;27.914;2023-02-12T09:35:37;102386.38;;;4.95;49.93
63204;BME280;49297;43.210;27.914;2023-02-12T09:38:04;102389.56;;;5.03;49.58
63204;BME280;49297;43.210;27.914;2023-02-12T09:43:24;102383.06;;;5.13;49.50
63204;BME280;49297;43.210;27.914;2023-02-12T09:49:15;102386.53;;;5.14;49.95
63204;BME280;49297;43.210;27.914;2023-02-12T09:51:44;102382.16;;;5.13;50.04
63204;BME280;49297;43.210;27.914;2023-02-12T09:54:15;102389.09;;;5.15;50.21
63204;BME280;49297;43.210;27.914;2023-02-12T09:56:45;102392.50;;;5.18;50.43
63204;BME280;49297;43.210;27.914;2023-02-12T10:01:54;102391.56;;;5.19;50.98
63204;BME280;49297;43.210;27.914;2023-02-12T10:04:21;102385.34;;;5.21;51.76
63204;BME280;49297;43.210;27.914;2023-02-12T10:07:05;102387.13;;;5.21;52.72
63204;BME280;49297;43.210;27.914;2023-02-12T10:15:37;102390.06;;;5.13;53.75
63204;BME280;49297;43.210;27.914;2023-02-12T10:26:30;102399.72;;;5.12;53.12
63204;BME280;49297;43.210;27.914;2023-02-12T10:29:04;102399.16;;;5.04;53.06
63204;BME280;49297;43.210;27.914;2023-02-12T10:31:40;102393.91;;;5.04;53.09
63204;BME280;49297;43.210;27.914;2023-02-12T10:34:19;102398.13;;;5.08;52.90
63204;BME280;49297;43.210;27.914;2023-02-12T10:36:47;102396.25;;;5.12;53.07
63204;BME280;49297;43.210;27.914;2023-02-12T10:39:21;102396.41;;;5.07;52.54
63204;BME280;49297;43.210;27.914;2023-02-12T10:42:29;102395.50;;;5.08;52.31
63204;BME280;49297;43.210;27.914;2023-02-12T10:44:55;102398.34;;;5.02;52.35
63204;BME280;49297;43.210;27.914;2023-02-12T10:47:23;102403.75;;;4.99;52.63
63204;BME280;49297;43.210;27.914;2023-02-12T10:49:54;102394.94;;;5.00;52.78
63204;BME280;49297;43.210;27.914;2023-02-12T10:52:33;102399.41;;;4.98;52.90
63204;BME280;49297;43.210;27.914;2023-02-12T10:55:00;102409.91;;;4.98;53.09
63204;BME280;49297;43.210;27.914;2023-02-12T10:57:29;102403.50;;;5.05;52.65
63204;BME280;49297;43.210;27.914;2023-02-12T10:59:56;102407.03;;;5.04;52.70
63204;BME280;49297;43.210;27.914;2023-02-12T11:02:38;102422.44;;;5.13;52.49
63204;BME280;49297;43.210;27.914;2023-02-12T11:05:24;102420.47;;;5.19;52.36
63204;BME280;49297;43.210;27.914;2023-02-12T11:07:59;102421.13;;;5.24;52.28
63204;BME280;49297;43.210;27.914;2023-02-12T11:10:39;102424.69;;;5.23;52.23
63204;BME280;49297;43.210;27.914;2023-02-12T11:13:21;102423.25;;;5.36;52.15
63204;BME280;49297;43.210;27.914;2023-02-12T11:15:49;102426.25;;;5.49;51.78
63204;BME280;49297;43.210;27.914;2023-02-12T11:18:39;102425.00;;;5.58;51.57
63204;BME280;49297;43.210;27.914;2023-02-12T11:21:22;102427.56;;;5.59;51.67
63204;BME280;49297;43.210;27.914;2023-02-12T11:23:48;102428.19;;;5.66;51.19
63204;BME280;49297;43.210;27.914;2023-02-12T11:29:00;102420.31;;;5.86;51.13
63204;BME280;49297;43.210;27.914;2023-02-12T11:31:31;102421.47;;;6.01;51.38
63204;BME280;49297;43.210;27.914;2023-02-12T11:34:14;102415.63;;;6.15;51.23
63204;BME280;49297;43.210;27.914;2023-02-12T11:36:46;102413.81;;;6.16;49.44
63204;BME280;49297;43.210;27.914;2023-02-12T11:39:28;102423.41;;;6.17;48.29
63204;BME280;49297;43.210;27.914;2023-02-12T11:44:33;102415.03;;;6.08;48.18
63204;BME280;49297;43.210;27.914;2023-02-12T11:47:03;102416.28;;;6.00;48.19
63204;BME280;49297;43.210;27.914;2023-02-12T11:52:36;102413.16;;;5.90;48.11
63204;BME280;49297;43.210;27.914;2023-02-12T11:55:35;102405.41;;;5.87;47.73
63204;BME280;49297;43.210;27.914;2023-02-12T11:58:19;102401.00;;;5.87;47.46
63204;BME280;49297;43.210;27.914;2023-02-12T12:03:27;102418.28;;;5.72;48.21
63204;BME280;49297;43.210;27.914;2023-02-12T12:05:58;102424.50;;;5.70;47.80
63204;BME280;49297;43.210;27.914;2023-02-12T12:08:42;102422.16;;;5.64;48.63
63204;BME280;49297;43.210;27.914;2023-02-12T12:11:14;102423.75;;;5.46;49.25
63204;BME280;49297;43.210;27.914;2023-02-12T12:13:56;102429.44;;;5.35;49.89
63204;BME280;49297;43.210;27.914;2023-02-12T12:16:42;102431.41;;;5.30;50.03
63204;BME280;49297;43.210;27.914;2023-02-12T12:20:22;102431.47;;;5.28;50.70
63204;BME280;49297;43.210;27.914;2023-02-12T12:25:07;102433.84;;;5.12;51.50
63204;BME280;49297;43.210;27.914;2023-02-12T12:31:07;102442.47;;;5.16;51.86
63204;BME280;49297;43.210;27.914;2023-02-12T12:33:50;102442.19;;;5.22;51.79
63204;BME280;49297;43.210;27.914;2023-02-12T12:39:31;102462.13;;;5.28;52.33
63204;BME280;49297;43.210;27.914;2023-02-12T12:47:17;102461.75;;;5.37;52.19
63204;BME280;49297;43.210;27.914;2023-02-12T12:50:03;102473.84;;;5.41;52.54
63204;BME280;49297;43.210;27.914;2023-02-12T12:52:50;102475.75;;;5.38;52.48
63204;BME280;49297;43.210;27.914;2023-02-12T12:55:33;102475.81;;;5.36;52.84
63204;BME280;49297;43.210;27.914;2023-02-12T12:58:14;102481.84;;;5.38;53.22
63204;BME280;49297;43.210;27.914;2023-02-12T13:06:28;102483.31;;;5.23;53.05
63204;BME280;49297;43.210;27.914;2023-02-12T13:09:02;102493.19;;;5.17;53.31
63204;BME280;49297;43.210;27.914;2023-02-12T13:22:14;102506.47;;;5.13;54.81
63204;BME280;49297;43.210;27.914;2023-02-12T13:24:49;102508.03;;;5.18;55.14
63204;BME280;49297;43.210;27.914;2023-02-12T13:27:21;102509.88;;;5.15;55.19
63204;BME280;49297;43.210;27.914;2023-02-12T13:29:57;102516.09;;;5.13;54.95
63204;BME280;49297;43.210;27.914;2023-02-12T13:32:29;102524.75;;;5.15;55.05
63204;BME280;49297;43.210;27.914;2023-02-12T13:34:58;102522.97;;;5.17;55.55
63204;BME280;49297;43.210;27.914;2023-02-12T13:37:39;102538.56;;;5.20;55.05
63204;BME280;49297;43.210;27.914;2023-02-12T13:40:15;102532.13;;;5.29;55.50
63204;BME280;49297;43.210;27.914;2023-02-12T13:45:15;102535.84;;;5.23;55.69
63204;BME280;49297;43.210;27.914;2023-02-12T13:48:19;102554.16;;;5.25;55.87
63204;BME280;49297;43.210;27.914;2023-02-12T13:56:33;102566.72;;;5.17;56.36
63204;BME280;49297;43.210;27.914;2023-02-12T13:59:03;102569.41;;;5.15;56.27
63204;BME280;49297;43.210;27.914;2023-02-12T14:01:46;102584.25;;;5.16;56.52
63204;BME280;49297;43.210;27.914;2023-02-12T14:07:01;102576.38;;;5.16;56.73
63204;BME280;49297;43.210;27.914;2023-02-12T14:12:14;102583.50;;;5.12;57.42
63204;BME280;49297;43.210;27.914;2023-02-12T14:14:44;102589.63;;;5.13;58.28
63204;BME280;49297;43.210;27.914;2023-02-12T14:27:46;102587.19;;;5.08;59.88
63204;BME280;49297;43.210;27.914;2023-02-12T14:40:41;102613.03;;;4.95;61.51
63204;BME280;49297;43.210;27.914;2023-02-12T14:43:37;102623.53;;;4.95;61.65
63204;BME280;49297;43.210;27.914;2023-02-12T14:48:51;102635.13;;;4.88;61.39
63204;BME280;49297;43.210;27.914;2023-02-12T14:51:27;102628.06;;;4.90;61.25
63204;BME280;49297;43.210;27.914;2023-02-12T14:53:57;102641.25;;;4.89;60.75
63204;BME280;49297;43.210;27.914;2023-02-12T14:56:23;102639.53;;;4.88;60.75
63204;BME280;49297;43.210;27.914;2023-02-12T14:58:52;102651.94;;;4.83;60.78
63204;BME280;49297;43.210;27.914;2023-02-12T15:01:30;102657.31;;;4.80;60.80
63204;BME280;49297;43.210;27.914;2023-02-12T15:04:03;102659.13;;;4.77;60.76
63204;BME280;49297;43.210;27.914;2023-02-12T15:06:40;102663.56;;;4.75;60.66
63204;BME280;49297;43.210;27.914;2023-02-12T15:09:20;102667.16;;;4.73;60.68
63204;BME280;49297;43.210;27.914;2023-02-12T15:11:56;102672.47;;;4.71;60.55
63204;BME280;49297;43.210;27.914;2023-02-12T15:14:29;102682.09;;;4.71;60.48
63204;BME280;49297;43.210;27.914;2023-02-12T15:22:29;102696.19;;;4.68;59.96
63204;BME280;49297;43.210;27.914;2023-02-12T15:25:22;102702.34;;;4.67;60.43
63204;BME280;49297;43.210;27.914;2023-02-12T15:27:53;102721.69;;;4.63;60.55
63204;BME280;49297;43.210;27.914;2023-02-12T15:30:27;102717.53;;;4.57;60.06
63204;BME280;49297;43.210;27.914;2023-02-12T15:32:55;102713.19;;;4.56;60.43
63204;BME280;49297;43.210;27.914;2023-02-12T15:35:28;102715.91;;;4.53;60.47
63204;BME280;49297;43.210;27.914;2023-02-12T15:37:55;102721.22;;;4.52;60.78
63204;BME280;49297;43.210;27.914;2023-02-12T15:40:22;102725.66;;;4.50;60.26